Latest Weather Observations for Gympie

IDQ60801

Issued at 11:32 pm EST Sunday 20 August 2017 (issued every 30 minutes, with the page automatically refreshed every 10 minutes)

About weather observations | Map of weather stations | Latest weather observations for QLD | Other Formats
Station Details ID: 040093 Name: GYMPIE Lat: -26.18 Lon: 152.64 Height: 64.5 m
Data from the previous 72 hours. | See also: Recent months at Gympie
Date/Time
EST
Temp
°C
App
Temp
°C
Dew
Point
°C
Rel
Hum
%
Delta-T
°C
Wind Press
QNH
hPa
Press
MSL
hPa
Rain since
9am
mm
Dir  Spd
km/h
Gust
km/h
Spd
kts
Gust
kts
20/11:30pm 5.1 3.7 3.4 89 0.7 CALM 0 0 0 0 1020.9 1020.9 0.0
20/11:00pm 6.2 5.0 4.4 88 0.8 CALM 0 0 0 0 1020.6 1020.6 0.0
20/10:30pm 6.2 4.9 4.2 87 0.9 CALM 0 0 0 0 1020.8 1020.8 0.0
20/10:00pm 6.6 5.3 4.1 84 1.1 CALM 0 0 0 0 1020.9 1020.9 0.0
20/09:30pm 7.1 5.8 3.9 80 1.4 CALM 0 0 0 0 1020.9 1020.9 0.0
20/09:00pm 8.5 7.3 4.7 77 1.7 CALM 0 0 0 0 1020.7 1020.7 0.0
20/08:30pm 9.3 8.2 5.1 75 1.9 CALM 0 0 0 0 1020.7 1020.7 0.0
20/08:00pm 10.0 8.7 4.2 67 2.6 CALM 0 0 0 0 1020.7 1020.7 0.0
20/07:30pm 12.5 11.4 5.2 61 3.4 CALM 0 0 0 0 1020.4 1020.4 0.0
20/07:00pm 13.1 11.8 4.3 55 4.0 CALM 0 0 0 0 1020.1 1020.1 0.0
20/06:30pm 15.1 13.6 4.8 50 4.8 ESE 2 4 1 2 1019.4 1019.4 0.0
20/06:00pm 16.1 13.7 4.2 45 5.5 E 6 9 3 5 1018.8 1018.8 0.0
20/05:30pm 17.2 14.5 3.8 41 6.3 E 7 13 4 7 1018.5 1018.5 0.0
20/05:00pm 18.7 15.2 3.3 36 7.2 E 11 19 6 10 1018.1 1018.1 0.0
20/04:30pm 20.0 16.7 2.4 31 8.2 E 9 19 5 10 1017.7 1017.7 0.0
20/04:00pm 20.9 16.7 -4.3 18 10.3 SE 9 17 5 9 1017.4 1017.4 0.0
20/03:30pm 20.9 16.2 -5.0 17 10.5 SE 11 20 6 11 1017.3 1017.3 0.0
20/03:00pm 21.7 17.4 -5.2 16 10.9 S 9 19 5 10 1017.2 1017.2 0.0
20/02:30pm 21.5 17.5 -5.3 16 10.8 SSE 7 13 4 7 1017.3 1017.3 0.0
20/02:00pm 21.3 17.6 -2.5 20 10.1 S 7 13 4 7 1017.5 1017.5 0.0
20/01:30pm 20.9 17.4 -2.9 20 10.0 SE 6 11 3 6 1017.7 1017.7 0.0
20/01:00pm 21.1 16.5 -0.8 23 9.6 SE 13 26 7 14 1018.2 1018.2 0.0
20/12:30pm 20.2 16.3 -1.6 23 9.4 SSE 9 17 5 9 1018.6 1018.6 0.0
20/12:00pm 19.6 15.8 -0.9 25 8.9 SSE 9 22 5 12 1019.1 1019.1 0.0
20/11:30am 19.5 15.4 0.0 27 8.6 S 11 20 6 11 1019.8 1019.8 0.0
20/11:00am 18.4 14.3 0.1 29 8.0 SSE 11 22 6 12 1020.2 1020.2 0.0
20/10:30am 17.8 12.9 -0.5 29 7.9 S 15 28 8 15 1020.5 1020.5 0.0
20/10:00am 17.2 12.6 -1.0 29 7.7 S 13 22 7 12 1020.7 1020.7 0.0
20/09:30am 16.4 13.2 -0.3 32 7.1 S 6 9 3 5 1020.8 1020.8 0.0
20/09:00am 14.8 11.7 -0.1 36 6.3 SE 6 9 3 5 1021.0 1021.0 0.0
20/08:30am 13.8 11.4 -0.3 38 5.9 SE 2 6 1 3 1020.8 1020.8 0.0
20/08:00am 11.1 9.0 -0.7 44 4.7 CALM 0 0 0 0 1020.6 1020.6 0.0
20/07:59am 11.0 8.9 -0.8 44 4.7 CALM 0 0 0 0 1020.7 1020.7 0.0
20/07:30am 6.0 4.4 2.5 78 1.4 CALM 0 0 0 0 1020.4 1020.4 0.0
20/07:00am 3.8 1.8 0.0 76 1.4 CALM 0 0 0 0 1020.1 1020.1 0.0
20/06:30am 3.4 1.2 -1.5 70 1.8 CALM 0 0 0 0 1019.7 1019.7 0.0
20/06:00am 5.1 2.1 -1.8 61 2.5 WSW 4 6 2 3 1019.1 1019.1 0.0
20/05:30am 4.7 1.9 -0.7 68 2.0 WSW 4 4 2 2 1018.8 1018.8 0.0
20/05:00am 4.4 1.9 -0.8 69 1.9 S 2 4 1 2 1018.5 1018.5 0.0
20/04:30am 5.1 2.3 -0.3 68 2.0 S 4 9 2 5 1018.1 1018.1 0.0
20/04:00am 6.4 3.7 -2.5 53 3.2 SSE 2 6 1 3 1018.0 1018.0 0.0
20/03:30am 6.8 4.1 -2.1 53 3.3 WNW 2 9 1 5 1017.8 1017.8 0.0
20/03:00am 7.2 4.2 -1.7 53 3.3 NNW 4 6 2 3 1017.8 1017.8 0.0
20/02:30am 8.7 5.8 -1.4 49 3.9 NNW 4 6 2 3 1018.1 1018.1 0.0
20/02:00am 8.7 5.2 -2.6 45 4.2 S 6 11 3 6 1018.0 1018.0 0.0
20/01:30am 10.5 6.9 -3.9 36 5.3 SSW 6 11 3 6 1018.3 1018.3 0.0
20/01:00am 11.0 7.3 -4.2 34 5.6 SSW 6 11 3 6 1018.5 1018.5 0.0
20/12:30am 11.9 8.2 -4.7 31 6.1 S 6 13 3 7 1018.8 1018.8 0.0
20/12:00am 12.3 8.6 -4.8 30 6.3 WSW 6 9 3 5 1019.0 1019.0 0.0
 
Date/Time
EST
Temp
°C
App
Temp
°C
Dew
Point
°C
Rel
Hum
%
Delta-T
°C
Wind Press
QNH
hPa
Press
MSL
hPa
Rain since
9am
mm
Dir  Spd
km/h
Gust
km/h
Spd
kts
Gust
kts
19/11:30pm 12.4 8.7 -4.7 30 6.3 SSW 6 15 3 8 1019.0 1019.0 0.0
19/11:00pm 12.9 8.2 -4.7 29 6.5 SSW 11 20 6 11 1019.3 1019.3 0.0
19/10:30pm 13.2 9.3 -4.4 29 6.6 SSW 7 13 4 7 1019.3 1019.3 0.0
19/10:00pm 14.1 8.7 -4.1 28 7.0 SW 15 30 8 16 1019.0 1019.0 0.0
19/09:30pm 13.4 8.5 -3.4 31 6.5 SW 13 22 7 12 1019.0 1019.0 0.0
19/09:00pm 13.6 9.8 -3.6 30 6.6 SW 7 17 4 9 1019.1 1019.1 0.0
19/08:30pm 14.1 10.3 -3.6 29 6.9 SW 7 15 4 8 1018.8 1018.8 0.0
19/08:00pm 14.9 10.6 -4.4 26 7.4 SW 9 33 5 18 1018.4 1018.4 0.0
19/07:30pm 15.4 11.1 -4.5 25 7.7 WSW 9 24 5 13 1018.1 1018.1 0.0
19/07:00pm 15.5 11.2 -5.0 24 7.8 SW 9 17 5 9 1017.8 1017.8 0.0
19/06:30pm 16.2 10.3 -5.5 22 8.3 SW 17 33 9 18 1017.3 1017.3 0.0
19/06:00pm 16.0 11.7 -4.5 24 7.9 SSW 9 19 5 10 1016.8 1016.8 0.0
19/05:30pm 17.3 11.9 -4.6 22 8.6 SSW 15 26 8 14 1016.2 1016.2 0.0
19/05:00pm 18.3 12.8 -5.0 20 9.2 SSW 15 28 8 15 1015.5 1015.4 0.0
19/04:30pm 19.4 14.1 -3.5 21 9.4 WSW 15 24 8 13 1015.0 1014.9 0.0
19/04:00pm 20.0 14.3 -3.6 20 9.7 WSW 17 35 9 19 1014.5 1014.4 0.0
19/03:30pm 20.4 14.7 -4.0 19 10.0 WSW 17 32 9 17 1014.3 1014.2 0.0
19/03:00pm 21.1 15.4 -4.1 18 10.4 WSW 17 33 9 18 1014.3 1014.2 0.0
19/02:30pm 21.0 15.3 -3.5 19 10.2 WSW 17 28 9 15 1014.3 1014.2 0.0
19/02:00pm 20.3 13.6 -4.0 19 10.0 SW 22 39 12 21 1014.6 1014.5 0.0
19/01:30pm 20.4 14.4 -3.3 20 9.9 W 19 32 10 17 1014.7 1014.6 0.0
19/01:00pm 20.1 14.1 -2.9 21 9.6 WSW 19 35 10 19 1015.0 1014.9 0.0
19/12:30pm 19.6 13.5 -2.7 22 9.3 WSW 20 37 11 20 1015.5 1015.4 0.0
19/12:00pm 19.1 12.1 -3.1 22 9.1 W 24 41 13 22 1016.0 1015.9 0.0
19/11:30am 19.0 13.0 -1.4 25 8.7 WSW 20 39 11 21 1016.3 1016.3 0.0
19/11:00am 18.8 12.9 -1.1 26 8.5 WSW 20 37 11 20 1016.9 1016.9 0.0
19/10:30am 17.9 12.0 -2.4 25 8.4 WSW 19 35 10 19 1017.4 1017.4 0.0
19/10:00am 17.4 11.3 -2.3 26 8.1 SW 20 39 11 21 1018.0 1018.0 0.0
19/09:32am 16.7 9.1 -2.4 27 7.8 SW 28 46 15 25 1018.4 1018.4 0.0
19/09:30am 16.5 9.2 -2.5 27 7.7 SW 26 46 14 25 1018.3 1018.3 0.0
19/09:00am 16.4 11.4 -1.2 30 7.3 SW 15 30 8 16 1018.7 1018.7 0.0
19/08:30am 15.6 10.7 -0.6 33 6.8 SSW 15 24 8 13 1018.7 1018.7 0.0
19/08:00am 15.0 10.1 -0.3 35 6.4 SSW 15 32 8 17 1018.7 1018.7 0.0
19/07:30am 14.1 9.1 -1.5 34 6.3 SSW 15 28 8 15 1018.6 1018.6 0.0
19/07:00am 13.2 8.5 -1.5 36 5.9 SW 13 26 7 14 1018.4 1018.4 0.0
19/06:30am 13.4 8.0 -1.7 35 6.1 SW 17 32 9 17 1018.2 1018.2 0.0
19/06:00am 13.1 8.0 -1.6 36 5.9 SW 15 32 8 17 1018.0 1018.0 0.0
19/05:30am 13.6 8.5 -1.6 35 6.1 SW 15 28 8 15 1017.6 1017.6 0.0
19/05:00am 13.9 8.8 -1.7 34 6.3 SSW 15 30 8 16 1017.4 1017.4 0.0
19/04:30am 14.0 8.6 -1.2 35 6.2 SSW 17 35 9 19 1017.2 1017.2 0.0
19/04:00am 14.4 9.4 -1.2 34 6.4 SSW 15 26 8 14 1016.9 1016.9 0.0
19/03:30am 14.6 9.9 -1.5 33 6.6 SSW 13 24 7 13 1016.8 1016.8 0.0
19/03:00am 15.6 10.5 -1.9 30 7.1 SW 15 32 8 17 1016.7 1016.7 0.0
19/02:30am 15.2 10.5 -1.8 31 6.9 SSW 13 22 7 12 1016.9 1016.9 0.0
19/02:00am 15.4 10.7 -1.6 31 7.0 SW 13 20 7 11 1016.9 1016.9 0.0
19/01:30am 15.0 11.5 -1.1 33 6.7 SSW 7 20 4 11 1017.0 1017.0 0.0
19/01:00am 15.2 10.9 -1.4 32 6.8 SW 11 20 6 11 1017.2 1017.2 0.0
19/12:30am 14.2 10.2 -2.2 32 6.6 SW 9 15 5 8 1017.2 1017.2 0.0
19/12:00am 13.4 9.6 -3.4 31 6.5 WSW 7 9 4 5 1017.0 1017.0 0.0
 
Date/Time
EST
Temp
°C
App
Temp
°C
Dew
Point
°C
Rel
Hum
%
Delta-T
°C
Wind Press
QNH
hPa
Press
MSL
hPa
Rain since
9am
mm
Dir  Spd
km/h
Gust
km/h
Spd
kts
Gust
kts
18/11:30pm 15.9 12.6 -4.1 25 7.8 W 4 7 2 4 1017.0 1017.0 0.0
18/11:00pm 16.3 12.6 -4.8 23 8.1 WSW 6 6 3 3 1017.0 1017.0 0.0
18/10:30pm 17.3 13.7 -4.0 23 8.5 W 6 9 3 5 1017.1 1017.1 0.0
18/10:00pm 18.6 14.6 -5.4 19 9.4 W 7 11 4 6 1017.1 1017.1 0.0
18/09:30pm 19.4 15.3 -6.2 17 9.9 W 7 15 4 8 1017.0 1017.0 0.0
18/09:00pm 19.4 15.3 -6.2 17 9.9 W 7 13 4 7 1016.8 1016.8 0.0
18/08:30pm 20.2 16.3 -6.4 16 10.4 W 6 9 3 5 1016.7 1016.7 0.0
18/08:00pm 19.7 15.9 -5.3 18 9.9 W 6 15 3 8 1016.5 1016.5 0.0
18/07:30pm 21.1 17.0 -6.5 15 10.8 W 7 11 4 6 1016.2 1016.2 0.0
18/07:00pm 21.5 16.6 -7.1 14 11.1 WSW 11 22 6 12 1015.8 1015.7 0.0
18/06:30pm 21.9 17.4 -6.8 14 11.3 W 9 15 5 8 1015.2 1015.1 0.0
18/06:00pm 22.2 18.1 -6.5 14 11.4 W 7 13 4 7 1014.6 1014.5 0.0
18/05:30pm 23.4 18.7 -8.7 11 12.4 WSW 9 19 5 10 1014.0 1013.9 0.0
18/05:00pm 24.9 19.1 -8.8 10 13.2 W 15 24 8 13 1013.5 1013.4 0.0
18/04:30pm 25.8 19.7 -8.1 10 13.5 WSW 17 28 9 15 1013.0 1012.9 0.0
18/04:00pm 26.4 20.5 -5.3 12 13.4 SW 17 37 9 20 1012.6 1012.5 0.0
18/03:30pm 26.7 21.0 -7.4 10 13.9 SW 15 37 8 20 1012.4 1012.3 0.0
18/03:00pm 26.8 20.4 -7.3 10 14.0 W 19 39 10 21 1012.4 1012.3 0.0
18/02:30pm 26.6 19.4 -5.1 12 13.5 W 24 39 13 21 1012.8 1012.7 0.0
18/02:00pm 26.7 20.5 -3.0 14 13.1 SW 20 33 11 18 1012.8 1012.7 0.0
18/01:30pm 26.8 21.2 -2.9 14 13.2 WSW 17 28 9 15 1013.1 1013.0 0.0
18/01:00pm 26.6 21.1 -2.1 15 12.9 W 17 30 9 16 1013.4 1013.3 0.0
18/12:30pm 26.3 20.9 -1.5 16 12.6 WSW 17 32 9 17 1013.9 1013.8 0.0
18/12:00pm 25.8 19.8 -2.8 15 12.6 WSW 19 35 10 19 1014.3 1014.2 0.0
18/11:30am 25.7 19.8 -2.0 16 12.4 WSW 19 33 10 18 1014.8 1014.7 0.0
18/11:00am 25.3 20.0 -0.7 18 11.9 WSW 17 33 9 18 1015.2 1015.1 0.0
18/10:30am 24.6 18.8 -1.3 18 11.6 WSW 19 33 10 18 1015.8 1015.7 0.0
18/10:00am 24.3 19.4 -0.8 19 11.3 SW 15 26 8 14 1016.0 1015.9 0.0
18/09:30am 23.6 18.7 -0.6 20 10.9 SW 15 26 8 14 1016.4 1016.4 0.0
18/09:00am 23.1 19.2 0.9 23 10.2 SW 11 22 6 12 1016.4 1016.4 0.0
18/08:30am 21.7 20.3 5.6 35 8.1 N 2 4 1 2 1016.2 1016.2 0.0
18/08:00am 17.7 18.5 13.6 77 2.3 NNE 2 4 1 2 1016.2 1016.2 0.0
18/07:30am 13.8 13.7 13.2 96 0.3 NNE 6 7 3 4 1016.0 1015.9 0.0
18/07:00am 10.9 10.4 10.7 99 0.1 N 4 6 2 3 1015.5 1015.4 0.0
18/06:30am 11.0 11.3 10.8 99 0.1 CALM 0 0 0 0 1015.3 1015.2 0.0
18/06:00am 11.0 11.3 10.8 99 0.1 CALM 0 0 0 0 1014.9 1014.8 0.0
18/05:30am 11.6 12.1 11.6 100 0.0 CALM 0 2 0 1 1014.6 1014.5 0.0
18/05:00am 11.1 11.0 10.9 99 0.1 NNE 2 6 1 3 1014.3 1014.2 0.0
18/04:30am 11.8 12.4 11.8 100 0.0 CALM 0 4 0 2 1014.0 1013.9 0.0
18/04:00am 11.9 12.1 11.7 99 0.1 E 2 4 1 2 1013.7 1013.6 0.0
18/03:30am 12.5 13.3 12.5 100 0.0 CALM 0 6 0 3 1013.5 1013.4 0.0
18/03:00am 12.8 13.7 12.8 100 0.0 CALM 0 0 0 0 1013.3 1013.2 0.0
18/02:30am 12.6 13.3 12.3 98 0.2 CALM 0 0 0 0 1013.3 1013.2 0.0
18/02:00am 12.7 13.4 12.2 97 0.3 CALM 0 0 0 0 1013.3 1013.2 0.0
18/01:30am 13.9 15.0 13.4 97 0.3 CALM 0 0 0 0 1013.3 1013.2 0.0
18/01:00am 14.5 15.8 14.2 98 0.2 CALM 0 0 0 0 1013.4 1013.3 0.0
18/12:30am 15.4 17.0 14.9 97 0.3 CALM 0 0 0 0 1013.6 1013.5 0.0
18/12:00am 16.2 17.8 15.9 98 0.2 N 2 4 1 2 1013.7 1013.6 0.0

Other Formats:

Comma delimited format used in spreadsheet applications
http://www.bom.gov.au/fwo/IDQ60801/IDQ60801.94566.axf

JavaScript Object Notation format (JSON) in row-major order
http://www.bom.gov.au/fwo/IDQ60801/IDQ60801.94566.json